EXS24T EGCC-LEAL
Flight info
| Callsign | EXS24T |
|---|---|
| Flight time | 2h 28m |
| Altitude | 37000 |
| Route | LISTO P18 TELBA L151 KIDLI UN859 SOPIL DCT BALAN DCT LMG DCT PIMQO DCT AGN DCT ANETO DCT POSSY DCT XIMPE DCT RIMES N860 VLC |
| Aircraft | B733/M-SDE2E3FHIRW/S |
Departure
| Time | 2026-05-05 15:56 |
|---|---|
| Airport | Manchester Airport (EGCC) |
Arrival
| Time | 2026-05-05 18:25 |
|---|---|
| Airport | Alicante-Elche Miguel Hernández Airport (LEAL) |
| Time | Latitude | Longitude | Altitude | Speed | Heading |
|---|---|---|---|---|---|
| 2026-05-05 15:29 | 53.35980 | -2.27514 | 260 ft | 0 kts | 96° |
| 2026-05-05 15:47 | 53.35981 | -2.27527 | 260 ft | 2 kts | 97° |
| 2026-05-05 15:47 | 53.35983 | -2.27552 | 260 ft | 2 kts | 95° |
| 2026-05-05 15:48 | 53.35984 | -2.27577 | 260 ft | 2 kts | 96° |
| 2026-05-05 15:48 | 53.35990 | -2.27601 | 260 ft | 2 kts | 128° |
| 2026-05-05 15:48 | 53.36001 | -2.27617 | 260 ft | 2 kts | 154° |
| 2026-05-05 15:48 | 53.36015 | -2.27624 | 260 ft | 1 kts | 179° |
| 2026-05-05 15:49 | 53.36021 | -2.27623 | 260 ft | 1 kts | 190° |
| 2026-05-05 15:49 | 53.36025 | -2.27622 | 260 ft | 0 kts | 187° |
| 2026-05-05 15:51 | 53.36019 | -2.27623 | 260 ft | 2 kts | 187° |
| 2026-05-05 15:52 | 53.35991 | -2.27629 | 260 ft | 6 kts | 186° |
| 2026-05-05 15:52 | 53.35936 | -2.27639 | 260 ft | 9 kts | 186° |
| 2026-05-05 15:52 | 53.35856 | -2.27653 | 260 ft | 13 kts | 186° |
| 2026-05-05 15:52 | 53.35753 | -2.27671 | 260 ft | 15 kts | 194° |
| 2026-05-05 15:53 | 53.35672 | -2.27807 | 260 ft | 18 kts | 231° |
| 2026-05-05 15:53 | 53.35585 | -2.27981 | 260 ft | 20 kts | 232° |
| 2026-05-05 15:53 | 53.35479 | -2.28132 | 260 ft | 16 kts | 208° |
| 2026-05-05 15:53 | 53.35367 | -2.28174 | 260 ft | 17 kts | 189° |
| 2026-05-05 15:54 | 53.35260 | -2.28256 | 260 ft | 17 kts | 221° |
| 2026-05-05 15:54 | 53.35177 | -2.28414 | 260 ft | 18 kts | 231° |
| 2026-05-05 15:54 | 53.35091 | -2.28589 | 260 ft | 19 kts | 232° |
| 2026-05-05 15:54 | 53.34998 | -2.28770 | 260 ft | 21 kts | 226° |
| 2026-05-05 15:55 | 53.34896 | -2.28951 | 260 ft | 22 kts | 226° |
| 2026-05-05 15:55 | 53.34764 | -2.29074 | 260 ft | 22 kts | 175° |
| 2026-05-05 15:55 | 53.34681 | -2.29005 | 260 ft | 11 kts | 127° |
| 2026-05-05 15:55 | 53.34687 | -2.28919 | 260 ft | 8 kts | 51° |
| 2026-05-05 15:56 | 53.34730 | -2.28827 | 260 ft | 12 kts | 51° |
| 2026-05-05 15:56 | 53.34869 | -2.28550 | 260 ft | 70 kts | 53° |
| 2026-05-05 15:56 | 53.35384 | -2.27474 | 262 ft | 162 kts | 51° |
| 2026-05-05 15:56 | 53.36142 | -2.25836 | 1014 ft | 188 kts | 54° |
| 2026-05-05 15:57 | 53.36922 | -2.24019 | 1804 ft | 197 kts | 55° |
| 2026-05-05 15:57 | 53.37628 | -2.22015 | 2373 ft | 206 kts | 71° |
| 2026-05-05 15:57 | 53.37732 | -2.19680 | 3098 ft | 205 kts | 105° |
| 2026-05-05 15:57 | 53.37167 | -2.17529 | 3798 ft | 208 kts | 124° |
| 2026-05-05 15:58 | 53.36128 | -2.15811 | 4371 ft | 217 kts | 150° |
| 2026-05-05 15:58 | 53.34662 | -2.14962 | 4751 ft | 238 kts | 174° |
| 2026-05-05 15:58 | 53.32937 | -2.15154 | 5217 ft | 255 kts | 194° |
| 2026-05-05 15:58 | 53.31322 | -2.16308 | 5823 ft | 266 kts | 214° |
| 2026-05-05 15:59 | 53.29673 | -2.17879 | 6265 ft | 280 kts | 195° |
| 2026-05-05 15:59 | 53.27779 | -2.18182 | 7166 ft | 278 kts | 182° |
| 2026-05-05 15:59 | 53.25836 | -2.18335 | 8002 ft | 280 kts | 183° |
| 2026-05-05 15:59 | 53.23903 | -2.18545 | 8794 ft | 283 kts | 184° |
| 2026-05-05 16:00 | 53.21946 | -2.18795 | 9570 ft | 286 kts | 185° |
| 2026-05-05 16:00 | 53.19968 | -2.19070 | 10340 ft | 289 kts | 185° |
| 2026-05-05 16:00 | 53.17956 | -2.19364 | 11110 ft | 293 kts | 185° |
| 2026-05-05 16:00 | 53.15951 | -2.19667 | 11873 ft | 296 kts | 185° |
| 2026-05-05 16:01 | 53.13869 | -2.19991 | 12323 ft | 312 kts | 185° |
| 2026-05-05 16:01 | 53.11617 | -2.20342 | 12484 ft | 336 kts | 185° |
| 2026-05-05 16:01 | 53.09252 | -2.20710 | 13031 ft | 346 kts | 185° |
| 2026-05-05 16:01 | 53.06860 | -2.21082 | 13763 ft | 351 kts | 185° |
| 2026-05-05 16:02 | 53.04431 | -2.21460 | 14523 ft | 354 kts | 185° |
| 2026-05-05 16:02 | 53.01974 | -2.21842 | 15268 ft | 358 kts | 185° |
| 2026-05-05 16:02 | 52.99459 | -2.22233 | 16009 ft | 362 kts | 185° |
| 2026-05-05 16:02 | 52.96953 | -2.22622 | 16718 ft | 366 kts | 185° |
| 2026-05-05 16:03 | 52.94433 | -2.23013 | 17403 ft | 370 kts | 185° |
| 2026-05-05 16:03 | 52.91856 | -2.23412 | 18076 ft | 373 kts | 185° |
| 2026-05-05 16:03 | 52.89246 | -2.23816 | 18715 ft | 378 kts | 185° |
| 2026-05-05 16:03 | 52.86643 | -2.24224 | 19320 ft | 382 kts | 187° |
| 2026-05-05 16:04 | 52.84013 | -2.25051 | 19987 ft | 385 kts | 193° |
| 2026-05-05 16:04 | 52.81429 | -2.26067 | 20605 ft | 388 kts | 193° |
| 2026-05-05 16:04 | 52.78805 | -2.27095 | 21199 ft | 391 kts | 193° |
| 2026-05-05 16:04 | 52.76138 | -2.28130 | 21781 ft | 395 kts | 193° |
| 2026-05-05 16:05 | 52.73445 | -2.29169 | 22351 ft | 398 kts | 193° |
| 2026-05-05 16:05 | 52.70737 | -2.30210 | 22907 ft | 402 kts | 193° |
| 2026-05-05 16:05 | 52.67975 | -2.30913 | 23425 ft | 405 kts | 180° |
| 2026-05-05 16:05 | 52.65223 | -2.30166 | 23932 ft | 408 kts | 160° |
| 2026-05-05 16:06 | 52.62725 | -2.27985 | 24429 ft | 411 kts | 146° |
| 2026-05-05 16:06 | 52.60346 | -2.25295 | 24930 ft | 415 kts | 146° |
| 2026-05-05 16:06 | 52.57964 | -2.22615 | 25436 ft | 418 kts | 146° |
| 2026-05-05 16:06 | 52.55557 | -2.19951 | 25926 ft | 421 kts | 146° |
| 2026-05-05 16:07 | 52.53132 | -2.17291 | 26400 ft | 424 kts | 146° |
| 2026-05-05 16:07 | 52.50675 | -2.14608 | 26864 ft | 427 kts | 146° |
| 2026-05-05 16:07 | 52.48209 | -2.11921 | 27317 ft | 430 kts | 146° |
| 2026-05-05 16:07 | 52.45709 | -2.09203 | 27762 ft | 433 kts | 146° |
| 2026-05-05 16:08 | 52.43196 | -2.06474 | 28193 ft | 436 kts | 146° |
| 2026-05-05 16:08 | 52.40642 | -2.03706 | 28692 ft | 437 kts | 147° |
| 2026-05-05 16:08 | 52.38127 | -2.00986 | 29290 ft | 435 kts | 146° |
| 2026-05-05 16:08 | 52.35634 | -1.98295 | 29899 ft | 432 kts | 147° |
| 2026-05-05 16:09 | 52.33144 | -1.95609 | 30461 ft | 430 kts | 146° |
| 2026-05-05 16:09 | 52.30652 | -1.92923 | 30967 ft | 429 kts | 146° |
| 2026-05-05 16:09 | 52.28136 | -1.90216 | 31441 ft | 429 kts | 146° |
| 2026-05-05 16:09 | 52.25648 | -1.87542 | 31900 ft | 428 kts | 147° |
| 2026-05-05 16:10 | 52.23190 | -1.84905 | 32350 ft | 427 kts | 146° |
| 2026-05-05 16:10 | 52.20716 | -1.82254 | 32798 ft | 426 kts | 146° |
| 2026-05-05 16:10 | 52.18235 | -1.79598 | 33236 ft | 426 kts | 146° |
| 2026-05-05 16:10 | 52.15757 | -1.76948 | 33654 ft | 425 kts | 146° |
| 2026-05-05 16:11 | 52.13301 | -1.74325 | 34042 ft | 424 kts | 146° |
| 2026-05-05 16:11 | 52.05941 | -1.66487 | 35138 ft | 422 kts | 146° |
| 2026-05-05 16:12 | 52.03503 | -1.63890 | 35481 ft | 421 kts | 146° |
| 2026-05-05 16:12 | 51.98613 | -1.58707 | 36134 ft | 420 kts | 147° |
| 2026-05-05 16:13 | 51.91295 | -1.50986 | 36943 ft | 421 kts | 147° |
| 2026-05-05 16:13 | 51.86344 | -1.45797 | 37001 ft | 427 kts | 147° |
| 2026-05-05 16:14 | 51.76344 | -1.35654 | 36984 ft | 423 kts | 158° |
| 2026-05-05 16:15 | 51.65070 | -1.29984 | 37004 ft | 425 kts | 163° |
| 2026-05-05 16:16 | 51.53823 | -1.24311 | 37001 ft | 424 kts | 163° |
| 2026-05-05 16:17 | 51.45539 | -1.19414 | 37003 ft | 424 kts | 155° |
| 2026-05-05 16:18 | 51.37560 | -1.13425 | 37002 ft | 425 kts | 155° |
| 2026-05-05 16:19 | 51.29518 | -1.07522 | 37001 ft | 424 kts | 155° |
| 2026-05-05 16:19 | 51.21498 | -1.01665 | 37001 ft | 424 kts | 155° |
| 2026-05-05 16:20 | 51.10770 | -0.93864 | 37001 ft | 424 kts | 155° |
| 2026-05-05 16:21 | 51.05441 | -0.89971 | 36998 ft | 421 kts | 170° |
| 2026-05-05 16:22 | 50.97363 | -0.84174 | 36938 ft | 428 kts | 171° |
| 2026-05-05 16:23 | 50.86512 | -0.76380 | 36918 ft | 430 kts | 169° |
| 2026-05-05 16:23 | 50.83857 | -0.74138 | 36945 ft | 442 kts | 161° |
| 2026-05-05 16:23 | 50.78706 | -0.68805 | 36943 ft | 446 kts | 159° |
| 2026-05-05 16:24 | 50.73546 | -0.63493 | 36940 ft | 444 kts | 160° |
| 2026-05-05 16:25 | 50.65755 | -0.55594 | 36940 ft | 444 kts | 160° |
| 2026-05-05 16:25 | 50.57996 | -0.47762 | 36941 ft | 444 kts | 160° |
| 2026-05-05 16:26 | 50.47591 | -0.37307 | 36941 ft | 444 kts | 160° |
| 2026-05-05 16:27 | 50.42417 | -0.32116 | 36930 ft | 443 kts | 161° |
| 2026-05-05 16:27 | 50.37275 | -0.26962 | 36937 ft | 442 kts | 161° |
| 2026-05-05 16:28 | 50.32078 | -0.21788 | 36940 ft | 443 kts | 161° |
| 2026-05-05 16:28 | 50.26907 | -0.16653 | 36941 ft | 443 kts | 161° |
| 2026-05-05 16:29 | 50.21703 | -0.11499 | 36940 ft | 443 kts | 161° |
| 2026-05-05 16:29 | 50.16503 | -0.06362 | 36931 ft | 443 kts | 161° |
| 2026-05-05 16:30 | 50.11316 | -0.01252 | 36922 ft | 443 kts | 161° |
| 2026-05-05 16:30 | 50.08629 | 0.00746 | 36915 ft | 415 kts | 177° |
| 2026-05-05 16:30 | 50.05889 | 0.01850 | 36913 ft | 408 kts | 181° |
| 2026-05-05 16:31 | 50.00336 | 0.03857 | 36916 ft | 410 kts | 180° |
| 2026-05-05 16:31 | 49.94836 | 0.05981 | 36914 ft | 411 kts | 180° |
| 2026-05-05 16:32 | 49.89291 | 0.08154 | 36901 ft | 411 kts | 179° |
| 2026-05-05 16:32 | 49.83768 | 0.10318 | 36914 ft | 410 kts | 179° |
| 2026-05-05 16:33 | 49.78237 | 0.12477 | 36914 ft | 411 kts | 179° |
| 2026-05-05 16:33 | 49.72739 | 0.14621 | 36914 ft | 411 kts | 179° |
| 2026-05-05 16:34 | 49.67213 | 0.16781 | 36912 ft | 411 kts | 179° |
| 2026-05-05 16:34 | 49.61659 | 0.19018 | 36909 ft | 413 kts | 179° |
| 2026-05-05 16:35 | 49.56139 | 0.21243 | 36912 ft | 414 kts | 179° |
| 2026-05-05 16:35 | 49.50588 | 0.23474 | 36903 ft | 414 kts | 179° |
| 2026-05-05 16:36 | 49.45040 | 0.25696 | 36891 ft | 414 kts | 179° |
| 2026-05-05 16:36 | 49.39463 | 0.27926 | 36885 ft | 414 kts | 179° |
| 2026-05-05 16:37 | 49.33909 | 0.30140 | 36886 ft | 414 kts | 179° |
| 2026-05-05 16:37 | 49.28354 | 0.32405 | 36887 ft | 415 kts | 178° |
| 2026-05-05 16:38 | 49.22829 | 0.34742 | 36886 ft | 415 kts | 178° |
| 2026-05-05 16:38 | 49.17287 | 0.37078 | 36886 ft | 415 kts | 178° |
| 2026-05-05 16:39 | 49.11714 | 0.39418 | 36886 ft | 415 kts | 178° |
| 2026-05-05 16:39 | 49.06136 | 0.41750 | 36874 ft | 420 kts | 176° |
| 2026-05-05 16:40 | 49.00486 | 0.44109 | 36887 ft | 427 kts | 175° |
| 2026-05-05 16:40 | 48.94729 | 0.46514 | 36891 ft | 432 kts | 174° |
| 2026-05-05 16:41 | 48.88971 | 0.48914 | 36871 ft | 432 kts | 174° |
| 2026-05-05 16:41 | 48.83181 | 0.51314 | 36899 ft | 430 kts | 174° |
| 2026-05-05 16:42 | 48.77442 | 0.53661 | 36913 ft | 429 kts | 175° |
| 2026-05-05 16:42 | 48.71678 | 0.55915 | 36952 ft | 428 kts | 175° |
| 2026-05-05 16:43 | 48.65950 | 0.58154 | 36982 ft | 428 kts | 175° |
| 2026-05-05 16:43 | 48.60208 | 0.60398 | 37003 ft | 428 kts | 175° |
| 2026-05-05 16:44 | 48.54463 | 0.62639 | 37002 ft | 428 kts | 175° |
| 2026-05-05 16:44 | 48.48687 | 0.64941 | 37002 ft | 429 kts | 174° |
| 2026-05-05 16:45 | 48.42956 | 0.67302 | 37000 ft | 427 kts | 175° |
| 2026-05-05 16:45 | 48.37246 | 0.69629 | 36999 ft | 427 kts | 175° |
| 2026-05-05 16:46 | 48.31544 | 0.71938 | 37003 ft | 428 kts | 175° |
| 2026-05-05 16:46 | 48.25808 | 0.74255 | 36997 ft | 428 kts | 175° |
| 2026-05-05 16:47 | 48.20065 | 0.76524 | 36992 ft | 427 kts | 175° |
| 2026-05-05 16:47 | 48.14349 | 0.78770 | 36968 ft | 427 kts | 175° |
| 2026-05-05 16:48 | 48.08598 | 0.81027 | 36952 ft | 427 kts | 175° |
| 2026-05-05 16:48 | 48.02883 | 0.83265 | 36940 ft | 428 kts | 175° |
| 2026-05-05 16:49 | 47.97142 | 0.85510 | 36926 ft | 427 kts | 175° |
| 2026-05-05 16:49 | 47.91403 | 0.87747 | 36890 ft | 428 kts | 175° |
| 2026-05-05 16:50 | 47.85670 | 0.89975 | 36854 ft | 428 kts | 175° |
| 2026-05-05 16:50 | 47.79946 | 0.92192 | 36859 ft | 428 kts | 175° |
| 2026-05-05 16:51 | 47.74198 | 0.94415 | 36860 ft | 428 kts | 175° |
| 2026-05-05 16:51 | 47.68467 | 0.96628 | 36858 ft | 428 kts | 175° |
| 2026-05-05 16:52 | 47.62724 | 0.98842 | 36858 ft | 428 kts | 175° |
| 2026-05-05 16:52 | 47.56970 | 1.01055 | 36860 ft | 429 kts | 175° |
| 2026-05-05 16:53 | 47.51241 | 1.03253 | 36860 ft | 429 kts | 175° |
| 2026-05-05 16:53 | 47.45455 | 1.05469 | 36858 ft | 429 kts | 174° |
| 2026-05-05 16:54 | 47.39728 | 1.06563 | 36863 ft | 410 kts | 191° |
| 2026-05-05 16:54 | 47.34028 | 1.06282 | 36862 ft | 411 kts | 191° |
| 2026-05-05 16:55 | 47.28359 | 1.06103 | 36880 ft | 411 kts | 190° |
| 2026-05-05 16:55 | 47.22655 | 1.05964 | 36900 ft | 411 kts | 190° |
| 2026-05-05 16:56 | 47.16945 | 1.05829 | 36918 ft | 411 kts | 190° |
| 2026-05-05 16:56 | 47.11253 | 1.05696 | 36918 ft | 411 kts | 190° |
| 2026-05-05 16:57 | 47.05574 | 1.05563 | 36917 ft | 411 kts | 190° |
| 2026-05-05 16:57 | 46.99866 | 1.05386 | 36910 ft | 411 kts | 191° |
| 2026-05-05 16:58 | 46.94158 | 1.05134 | 36914 ft | 412 kts | 190° |
| 2026-05-05 16:58 | 46.88455 | 1.04888 | 36876 ft | 413 kts | 190° |
| 2026-05-05 16:59 | 46.82761 | 1.04651 | 36927 ft | 412 kts | 190° |
| 2026-05-05 16:59 | 46.77029 | 1.04407 | 36961 ft | 413 kts | 190° |
| 2026-05-05 17:00 | 46.71337 | 1.04166 | 36994 ft | 412 kts | 190° |
| 2026-05-05 17:00 | 46.65640 | 1.03923 | 37001 ft | 412 kts | 190° |
| 2026-05-05 17:01 | 46.59900 | 1.03680 | 37002 ft | 412 kts | 190° |
| 2026-05-05 17:01 | 46.54203 | 1.03439 | 37001 ft | 411 kts | 190° |
| 2026-05-05 17:02 | 46.48518 | 1.03282 | 36973 ft | 413 kts | 189° |
| 2026-05-05 17:02 | 46.42790 | 1.03231 | 36942 ft | 413 kts | 189° |
| 2026-05-05 17:03 | 46.37050 | 1.03170 | 36910 ft | 413 kts | 189° |
| 2026-05-05 17:03 | 46.31327 | 1.03106 | 36914 ft | 413 kts | 189° |
| 2026-05-05 17:04 | 46.25602 | 1.03041 | 36911 ft | 412 kts | 189° |
| 2026-05-05 17:04 | 46.19893 | 1.02976 | 36911 ft | 413 kts | 189° |
| 2026-05-05 17:05 | 46.14177 | 1.02913 | 36914 ft | 413 kts | 189° |
| 2026-05-05 17:05 | 46.08452 | 1.02848 | 36911 ft | 413 kts | 189° |
| 2026-05-05 17:06 | 46.02737 | 1.02784 | 36911 ft | 413 kts | 189° |
| 2026-05-05 17:06 | 45.96985 | 1.02720 | 36914 ft | 413 kts | 189° |
| 2026-05-05 17:07 | 45.91286 | 1.02657 | 36913 ft | 413 kts | 189° |
| 2026-05-05 17:07 | 45.85564 | 1.02597 | 36897 ft | 412 kts | 189° |
| 2026-05-05 17:08 | 45.79812 | 1.02889 | 36914 ft | 423 kts | 179° |
| 2026-05-05 17:08 | 45.73990 | 1.04463 | 36913 ft | 426 kts | 178° |
| 2026-05-05 17:09 | 45.68207 | 1.06001 | 36917 ft | 425 kts | 178° |
| 2026-05-05 17:09 | 45.62418 | 1.07491 | 36911 ft | 426 kts | 179° |
| 2026-05-05 17:10 | 45.56590 | 1.08984 | 36913 ft | 427 kts | 179° |
| 2026-05-05 17:10 | 45.50761 | 1.10473 | 36913 ft | 428 kts | 179° |
| 2026-05-05 17:11 | 45.44930 | 1.11961 | 36914 ft | 428 kts | 179° |
| 2026-05-05 17:11 | 45.39051 | 1.13457 | 36915 ft | 429 kts | 179° |
| 2026-05-05 17:12 | 45.33201 | 1.14944 | 36913 ft | 429 kts | 179° |
| 2026-05-05 17:12 | 45.27357 | 1.16424 | 36912 ft | 431 kts | 179° |
| 2026-05-05 17:13 | 45.21471 | 1.17913 | 36915 ft | 431 kts | 179° |
| 2026-05-05 17:13 | 45.15586 | 1.19206 | 36893 ft | 419 kts | 191° |
| 2026-05-05 17:14 | 45.12781 | 1.18720 | 36923 ft | 405 kts | 200° |
| 2026-05-05 17:14 | 45.10024 | 1.17925 | 36916 ft | 405 kts | 201° |
| 2026-05-05 17:14 | 45.04484 | 1.16383 | 36913 ft | 408 kts | 199° |
| 2026-05-05 17:15 | 44.98891 | 1.14929 | 36912 ft | 412 kts | 199° |
| 2026-05-05 17:15 | 44.93283 | 1.13493 | 36916 ft | 413 kts | 199° |
| 2026-05-05 17:16 | 44.87654 | 1.12059 | 36876 ft | 411 kts | 199° |
| 2026-05-05 17:16 | 44.82030 | 1.10634 | 36913 ft | 410 kts | 199° |
| 2026-05-05 17:17 | 44.76449 | 1.09215 | 36914 ft | 409 kts | 199° |
| 2026-05-05 17:17 | 44.70896 | 1.07804 | 36923 ft | 409 kts | 199° |
| 2026-05-05 17:18 | 44.65337 | 1.06395 | 36921 ft | 408 kts | 199° |
| 2026-05-05 17:18 | 44.59770 | 1.04986 | 36932 ft | 406 kts | 199° |
| 2026-05-05 17:19 | 44.54226 | 1.03586 | 36939 ft | 406 kts | 199° |
| 2026-05-05 17:19 | 44.48679 | 1.02188 | 36948 ft | 405 kts | 199° |
| 2026-05-05 17:20 | 44.43156 | 1.00797 | 36959 ft | 404 kts | 199° |
| 2026-05-05 17:20 | 44.37639 | 0.99412 | 36964 ft | 404 kts | 199° |
| 2026-05-05 17:21 | 44.32144 | 0.98035 | 36964 ft | 403 kts | 199° |
| 2026-05-05 17:22 | 44.23953 | 0.95986 | 36996 ft | 400 kts | 199° |
| 2026-05-05 17:22 | 44.18519 | 0.94630 | 36999 ft | 401 kts | 199° |
| 2026-05-05 17:23 | 44.13024 | 0.93263 | 37005 ft | 401 kts | 199° |
| 2026-05-05 17:23 | 44.07587 | 0.91913 | 36998 ft | 400 kts | 199° |
| 2026-05-05 17:24 | 44.02110 | 0.90553 | 36999 ft | 400 kts | 199° |
| 2026-05-05 17:24 | 43.96666 | 0.89205 | 37002 ft | 400 kts | 199° |
| 2026-05-05 17:25 | 43.91218 | 0.87858 | 36991 ft | 400 kts | 199° |
| 2026-05-05 17:25 | 43.85746 | 0.86467 | 36966 ft | 400 kts | 200° |
| 2026-05-05 17:26 | 43.80292 | 0.85012 | 36981 ft | 401 kts | 200° |
| 2026-05-05 17:26 | 43.74827 | 0.83550 | 36984 ft | 402 kts | 200° |
| 2026-05-05 17:27 | 43.69354 | 0.82088 | 36986 ft | 401 kts | 200° |
| 2026-05-05 17:27 | 43.63929 | 0.80641 | 36986 ft | 401 kts | 200° |
| 2026-05-05 17:28 | 43.58460 | 0.79185 | 36983 ft | 401 kts | 200° |
| 2026-05-05 17:28 | 43.53009 | 0.77737 | 36973 ft | 401 kts | 200° |
| 2026-05-05 17:29 | 43.47528 | 0.76284 | 36959 ft | 402 kts | 200° |
| 2026-05-05 17:29 | 43.42088 | 0.74844 | 36972 ft | 402 kts | 200° |
| 2026-05-05 17:30 | 43.36591 | 0.73392 | 36967 ft | 402 kts | 200° |
| 2026-05-05 17:30 | 43.31130 | 0.71952 | 36970 ft | 401 kts | 200° |
| 2026-05-05 17:31 | 43.25694 | 0.70521 | 36985 ft | 400 kts | 200° |
| 2026-05-05 17:31 | 43.20233 | 0.69086 | 36996 ft | 401 kts | 200° |
| 2026-05-05 17:32 | 43.14791 | 0.67658 | 37000 ft | 402 kts | 200° |
| 2026-05-05 17:32 | 43.09304 | 0.66222 | 37004 ft | 401 kts | 200° |
| 2026-05-05 17:33 | 43.03872 | 0.64802 | 36999 ft | 401 kts | 200° |
| 2026-05-05 17:33 | 42.98383 | 0.63369 | 36997 ft | 403 kts | 198° |
| 2026-05-05 17:34 | 42.92863 | 0.61932 | 37001 ft | 407 kts | 197° |
| 2026-05-05 17:34 | 42.87281 | 0.60485 | 36965 ft | 412 kts | 195° |
| 2026-05-05 17:35 | 42.81676 | 0.59042 | 37010 ft | 412 kts | 195° |
| 2026-05-05 17:35 | 42.76089 | 0.57596 | 37003 ft | 411 kts | 195° |
| 2026-05-05 17:36 | 42.70502 | 0.56151 | 37000 ft | 410 kts | 196° |
| 2026-05-05 17:36 | 42.67795 | 0.55022 | 37002 ft | 403 kts | 208° |
| 2026-05-05 17:36 | 42.65264 | 0.53402 | 36994 ft | 402 kts | 210° |
| 2026-05-05 17:37 | 42.60257 | 0.50086 | 36993 ft | 402 kts | 210° |
| 2026-05-05 17:37 | 42.55212 | 0.46834 | 36999 ft | 402 kts | 210° |
| 2026-05-05 17:38 | 42.50167 | 0.43607 | 36975 ft | 403 kts | 210° |
| 2026-05-05 17:38 | 42.45130 | 0.40394 | 36941 ft | 403 kts | 210° |
| 2026-05-05 17:39 | 42.40060 | 0.37166 | 36908 ft | 402 kts | 210° |
| 2026-05-05 17:39 | 42.35006 | 0.33950 | 36886 ft | 403 kts | 209° |
| 2026-05-05 17:40 | 42.29959 | 0.30728 | 36907 ft | 402 kts | 209° |
| 2026-05-05 17:40 | 42.24939 | 0.27544 | 36906 ft | 403 kts | 209° |
| 2026-05-05 17:41 | 42.19879 | 0.24345 | 36910 ft | 403 kts | 209° |
| 2026-05-05 17:41 | 42.14825 | 0.21155 | 36902 ft | 403 kts | 209° |
| 2026-05-05 17:42 | 42.09745 | 0.17955 | 36895 ft | 403 kts | 209° |
| 2026-05-05 17:42 | 42.04518 | 0.15311 | 36901 ft | 410 kts | 192° |
| 2026-05-05 17:43 | 41.98849 | 0.14538 | 36896 ft | 414 kts | 190° |
| 2026-05-05 17:43 | 41.93144 | 0.13750 | 36900 ft | 413 kts | 191° |
| 2026-05-05 17:44 | 41.87449 | 0.12906 | 36856 ft | 413 kts | 191° |
| 2026-05-05 17:44 | 41.81751 | 0.12059 | 36903 ft | 413 kts | 191° |
| 2026-05-05 17:45 | 41.76062 | 0.11210 | 36900 ft | 414 kts | 191° |
| 2026-05-05 17:45 | 41.70374 | 0.10363 | 36901 ft | 413 kts | 191° |
| 2026-05-05 17:46 | 41.64700 | 0.09519 | 36893 ft | 413 kts | 191° |
| 2026-05-05 17:46 | 41.58994 | 0.08671 | 36886 ft | 413 kts | 191° |
| 2026-05-05 17:47 | 41.53324 | 0.07831 | 36887 ft | 413 kts | 191° |
| 2026-05-05 17:47 | 41.47638 | 0.06989 | 36886 ft | 413 kts | 191° |
| 2026-05-05 17:48 | 41.41930 | 0.06146 | 36885 ft | 413 kts | 191° |
| 2026-05-05 17:48 | 41.36237 | 0.05306 | 36888 ft | 413 kts | 191° |
| 2026-05-05 17:49 | 41.30561 | 0.04471 | 36886 ft | 413 kts | 191° |
| 2026-05-05 17:49 | 41.24883 | 0.03637 | 36886 ft | 413 kts | 191° |
| 2026-05-05 17:50 | 41.19175 | 0.02799 | 36886 ft | 413 kts | 191° |
| 2026-05-05 17:50 | 41.13471 | 0.01964 | 36885 ft | 413 kts | 191° |
| 2026-05-05 17:51 | 41.07779 | 0.01134 | 36893 ft | 413 kts | 190° |
| 2026-05-05 17:51 | 41.02103 | 0.00311 | 36908 ft | 414 kts | 189° |
| 2026-05-05 17:52 | 40.96391 | -0.00522 | 36928 ft | 417 kts | 188° |
| 2026-05-05 17:52 | 40.90623 | -0.01361 | 36947 ft | 418 kts | 188° |
| 2026-05-05 17:53 | 40.84861 | -0.02195 | 36936 ft | 417 kts | 188° |
| 2026-05-05 17:53 | 40.79110 | -0.03028 | 36940 ft | 417 kts | 188° |
| 2026-05-05 17:54 | 40.73388 | -0.03857 | 36940 ft | 417 kts | 188° |
| 2026-05-05 17:54 | 40.67640 | -0.04688 | 36940 ft | 417 kts | 188° |
| 2026-05-05 17:55 | 40.61874 | -0.05520 | 36940 ft | 417 kts | 188° |
| 2026-05-05 17:55 | 40.56138 | -0.06362 | 36939 ft | 417 kts | 190° |
| 2026-05-05 17:56 | 40.50604 | -0.08365 | 36940 ft | 415 kts | 199° |
| 2026-05-05 17:56 | 40.45111 | -0.10618 | 36941 ft | 415 kts | 198° |
| 2026-05-05 17:57 | 40.39620 | -0.12804 | 36939 ft | 415 kts | 198° |
| 2026-05-05 17:57 | 40.34124 | -0.14978 | 36941 ft | 415 kts | 198° |
| 2026-05-05 17:58 | 40.28599 | -0.17157 | 36941 ft | 415 kts | 198° |
| 2026-05-05 17:58 | 40.23084 | -0.19328 | 36939 ft | 415 kts | 198° |
| 2026-05-05 17:59 | 40.17614 | -0.21476 | 36941 ft | 415 kts | 198° |
| 2026-05-05 17:59 | 40.12107 | -0.23637 | 36940 ft | 415 kts | 198° |
| 2026-05-05 18:00 | 40.06581 | -0.25803 | 36939 ft | 415 kts | 198° |
| 2026-05-05 18:00 | 40.01083 | -0.27954 | 36934 ft | 415 kts | 198° |
| 2026-05-05 18:01 | 39.95578 | -0.30099 | 36923 ft | 415 kts | 198° |
| 2026-05-05 18:01 | 39.90066 | -0.32245 | 36906 ft | 415 kts | 198° |
| 2026-05-05 18:02 | 39.84555 | -0.34379 | 36889 ft | 415 kts | 198° |
| 2026-05-05 18:02 | 39.79018 | -0.36527 | 36887 ft | 415 kts | 198° |
| 2026-05-05 18:03 | 39.73549 | -0.38647 | 36434 ft | 414 kts | 198° |
| 2026-05-05 18:03 | 39.70758 | -0.39729 | 35475 ft | 421 kts | 198° |
| 2026-05-05 18:03 | 39.67958 | -0.40814 | 34529 ft | 426 kts | 198° |
| 2026-05-05 18:03 | 39.65128 | -0.41909 | 33676 ft | 429 kts | 198° |
| 2026-05-05 18:04 | 39.62315 | -0.42997 | 32875 ft | 430 kts | 198° |
| 2026-05-05 18:04 | 39.59429 | -0.44111 | 32053 ft | 431 kts | 198° |
| 2026-05-05 18:04 | 39.56577 | -0.45211 | 31234 ft | 432 kts | 198° |
| 2026-05-05 18:04 | 39.53706 | -0.46318 | 30407 ft | 433 kts | 198° |
| 2026-05-05 18:05 | 39.50871 | -0.47410 | 29592 ft | 434 kts | 198° |
| 2026-05-05 18:05 | 39.47961 | -0.48516 | 28755 ft | 434 kts | 197° |
| 2026-05-05 18:05 | 39.45073 | -0.49551 | 27933 ft | 434 kts | 197° |
| 2026-05-05 18:05 | 39.42224 | -0.50563 | 27408 ft | 426 kts | 197° |
| 2026-05-05 18:06 | 39.39384 | -0.51573 | 26953 ft | 418 kts | 197° |
| 2026-05-05 18:06 | 39.37540 | -0.52230 | 26635 ft | 412 kts | 197° |
| 2026-05-05 18:06 | 39.33956 | -0.53505 | 26572 ft | 389 kts | 197° |
| 2026-05-05 18:06 | 39.31340 | -0.54438 | 26450 ft | 403 kts | 197° |
| 2026-05-05 18:07 | 39.28603 | -0.55415 | 26005 ft | 415 kts | 197° |
| 2026-05-05 18:07 | 39.25853 | -0.56392 | 25385 ft | 411 kts | 197° |
| 2026-05-05 18:07 | 39.23125 | -0.57361 | 24761 ft | 407 kts | 197° |
| 2026-05-05 18:07 | 39.20430 | -0.58317 | 24178 ft | 403 kts | 197° |
| 2026-05-05 18:08 | 39.17764 | -0.59263 | 23620 ft | 398 kts | 197° |
| 2026-05-05 18:08 | 39.15096 | -0.60209 | 23065 ft | 394 kts | 197° |
| 2026-05-05 18:08 | 39.12490 | -0.61132 | 22520 ft | 390 kts | 197° |
| 2026-05-05 18:08 | 39.09912 | -0.62044 | 21980 ft | 386 kts | 197° |
| 2026-05-05 18:09 | 39.07331 | -0.62957 | 21440 ft | 382 kts | 197° |
| 2026-05-05 18:09 | 39.04803 | -0.63850 | 20910 ft | 378 kts | 197° |
| 2026-05-05 18:09 | 39.02277 | -0.64743 | 20382 ft | 374 kts | 197° |
| 2026-05-05 18:09 | 38.99797 | -0.65622 | 19871 ft | 371 kts | 197° |
| 2026-05-05 18:10 | 38.97342 | -0.66498 | 19367 ft | 367 kts | 196° |
| 2026-05-05 18:10 | 38.94923 | -0.67356 | 18870 ft | 363 kts | 196° |
| 2026-05-05 18:10 | 38.92488 | -0.68216 | 18368 ft | 359 kts | 196° |
| 2026-05-05 18:10 | 38.90123 | -0.69050 | 17880 ft | 356 kts | 196° |
| 2026-05-05 18:11 | 38.87725 | -0.69891 | 17363 ft | 353 kts | 195° |
| 2026-05-05 18:11 | 38.85377 | -0.70713 | 16884 ft | 349 kts | 196° |
| 2026-05-05 18:11 | 38.83055 | -0.71527 | 16402 ft | 350 kts | 196° |
| 2026-05-05 18:11 | 38.80700 | -0.72353 | 15935 ft | 355 kts | 196° |
| 2026-05-05 18:12 | 38.78319 | -0.73187 | 15433 ft | 351 kts | 196° |
| 2026-05-05 18:12 | 38.75988 | -0.74003 | 14942 ft | 348 kts | 196° |
| 2026-05-05 18:12 | 38.73649 | -0.74823 | 14449 ft | 344 kts | 196° |
| 2026-05-05 18:12 | 38.71344 | -0.75629 | 13958 ft | 341 kts | 196° |
| 2026-05-05 18:13 | 38.69070 | -0.76424 | 13474 ft | 338 kts | 196° |
| 2026-05-05 18:13 | 38.66811 | -0.77214 | 13013 ft | 334 kts | 196° |
| 2026-05-05 18:13 | 38.64582 | -0.77992 | 12553 ft | 331 kts | 196° |
| 2026-05-05 18:13 | 38.62376 | -0.78762 | 12087 ft | 329 kts | 196° |
| 2026-05-05 18:14 | 38.60158 | -0.79536 | 11603 ft | 335 kts | 196° |
| 2026-05-05 18:14 | 38.57892 | -0.80326 | 10733 ft | 338 kts | 196° |
| 2026-05-05 18:14 | 38.55682 | -0.81095 | 10532 ft | 319 kts | 196° |
| 2026-05-05 18:14 | 38.53836 | -0.81995 | 10389 ft | 300 kts | 214° |
| 2026-05-05 18:15 | 38.53331 | -0.82476 | 10319 ft | 295 kts | 223° |
| 2026-05-05 18:15 | 38.53072 | -0.82793 | 10262 ft | 292 kts | 227° |
| 2026-05-05 18:15 | 38.51804 | -0.84803 | 9828 ft | 286 kts | 233° |
| 2026-05-05 18:15 | 38.51241 | -0.85743 | 9628 ft | 283 kts | 232° |
| 2026-05-05 18:16 | 38.49893 | -0.87554 | 9168 ft | 279 kts | 222° |
| 2026-05-05 18:16 | 38.48472 | -0.89163 | 8779 ft | 273 kts | 222° |
| 2026-05-05 18:16 | 38.47063 | -0.90745 | 8420 ft | 267 kts | 220° |
| 2026-05-05 18:16 | 38.45539 | -0.92049 | 8066 ft | 261 kts | 212° |
| 2026-05-05 18:17 | 38.44012 | -0.93241 | 7719 ft | 256 kts | 212° |
| 2026-05-05 18:17 | 38.42517 | -0.94393 | 7370 ft | 252 kts | 209° |
| 2026-05-05 18:17 | 38.40944 | -0.95336 | 7037 ft | 250 kts | 204° |
| 2026-05-05 18:17 | 38.39367 | -0.96233 | 6734 ft | 245 kts | 204° |
| 2026-05-05 18:18 | 38.37807 | -0.96903 | 6644 ft | 228 kts | 185° |
| 2026-05-05 18:18 | 38.36281 | -0.96620 | 6483 ft | 223 kts | 159° |
| 2026-05-05 18:18 | 38.34900 | -0.95788 | 6401 ft | 221 kts | 153° |
| 2026-05-05 18:18 | 38.33820 | -0.94408 | 6233 ft | 225 kts | 125° |
| 2026-05-05 18:19 | 38.33081 | -0.92643 | 5923 ft | 226 kts | 112° |
| 2026-05-05 18:19 | 38.32653 | -0.90726 | 5527 ft | 226 kts | 103° |
| 2026-05-05 18:19 | 38.32417 | -0.88751 | 5137 ft | 227 kts | 98° |
| 2026-05-05 18:19 | 38.32272 | -0.86789 | 4808 ft | 221 kts | 96° |
| 2026-05-05 18:20 | 38.32131 | -0.84861 | 4499 ft | 215 kts | 97° |
| 2026-05-05 18:20 | 38.31963 | -0.83010 | 4205 ft | 209 kts | 99° |
| 2026-05-05 18:20 | 38.31759 | -0.81220 | 3913 ft | 199 kts | 101° |
| 2026-05-05 18:20 | 38.31534 | -0.79506 | 3636 ft | 195 kts | 102° |
| 2026-05-05 18:21 | 38.31296 | -0.77825 | 3379 ft | 192 kts | 102° |
| 2026-05-05 18:21 | 38.31057 | -0.76158 | 3110 ft | 190 kts | 102° |
| 2026-05-05 18:21 | 38.30816 | -0.74499 | 2846 ft | 193 kts | 102° |
| 2026-05-05 18:21 | 38.30582 | -0.72843 | 2597 ft | 187 kts | 102° |
| 2026-05-05 18:22 | 38.30357 | -0.71212 | 2324 ft | 188 kts | 102° |
| 2026-05-05 18:22 | 38.30126 | -0.69551 | 2063 ft | 192 kts | 102° |
| 2026-05-05 18:22 | 38.29903 | -0.67919 | 1798 ft | 181 kts | 102° |
| 2026-05-05 18:22 | 38.29693 | -0.66387 | 1559 ft | 170 kts | 102° |
| 2026-05-05 18:23 | 38.29496 | -0.64958 | 1343 ft | 160 kts | 102° |
| 2026-05-05 18:23 | 38.29308 | -0.63599 | 1119 ft | 150 kts | 102° |
| 2026-05-05 18:23 | 38.29132 | -0.62318 | 880 ft | 144 kts | 103° |
| 2026-05-05 18:23 | 38.28966 | -0.61120 | 757 ft | 133 kts | 103° |
| 2026-05-05 18:24 | 38.28804 | -0.59980 | 606 ft | 130 kts | 104° |
| 2026-05-05 18:24 | 38.28640 | -0.58849 | 447 ft | 129 kts | 103° |
| 2026-05-05 18:24 | 38.28484 | -0.57729 | 262 ft | 130 kts | 103° |
| 2026-05-05 18:24 | 38.28324 | -0.56587 | 119 ft | 127 kts | 102° |
| 2026-05-05 18:25 | 38.28182 | -0.55575 | 88 ft | 94 kts | 100° |
| 2026-05-05 18:25 | 38.28128 | -0.55152 | 72 ft | 41 kts | 94° |
| 2026-05-05 18:25 | 38.28174 | -0.54790 | 58 ft | 18 kts | 71° |
| 2026-05-05 18:25 | 38.28238 | -0.54727 | 55 ft | 13 kts | 313° |
| 2026-05-05 18:26 | 38.28249 | -0.54786 | 58 ft | 4 kts | 281° |
| 2026-05-05 18:26 | 38.28256 | -0.54824 | 59 ft | 4 kts | 282° |
| 2026-05-05 18:26 | 38.28265 | -0.54881 | 62 ft | 9 kts | 280° |
| 2026-05-05 18:26 | 38.28280 | -0.54990 | 66 ft | 15 kts | 278° |
| 2026-05-05 18:27 | 38.28301 | -0.55137 | 74 ft | 16 kts | 280° |
| 2026-05-05 18:27 | 38.28368 | -0.55186 | 77 ft | 15 kts | 43° |
| 2026-05-05 18:27 | 38.28435 | -0.55173 | 76 ft | 10 kts | 297° |
| 2026-05-05 18:27 | 38.28447 | -0.55245 | 81 ft | 7 kts | 280° |
| 2026-05-05 18:28 | 38.28434 | -0.55362 | 86 ft | 8 kts | 225° |
| 2026-05-05 18:28 | 38.28415 | -0.55390 | 86 ft | 0 kts | 231° |
| 2026-05-05 18:28 | 38.28412 | -0.55394 | 87 ft | 0 kts | 230° |